Pagrindinis puslapis
METAR-TAF:

METAR-TAF

Oro uostai :

Rijeka, Kroatija

platuma: 45-13N, ilguma: 014-35E, Aukštis: 85 m

Dabartinis oras

Ataskaita buvo paskelbta 17 minutes, ne 19:00 UTC
Vėjas 6 kt nuo kintamojo kryptimis
Temperatūra 18°C
Drėgmė 37%
Slėgis 1022 hPa
Matomumas 10 km arba daugiau
nėra debesų žemiau 1500 m ir nėra kamuolinių lietaus debesų

METAR: LDRI 191900Z VRB06KT CAVOK 18/03 Q1022 WS R14

Laikas: 21:17 (19:17 UTC)

Prognozė

Ataskaita buvo paskelbta 1 valandą ir 52 minutes, ne 17:25 UTC
Prognozė galioja nuo 19 metu 18 UTC su 20 metu 18 UTC
Vėjas 12 kt iš Šiaurės Rytų
Matomumas 10 km arba daugiau
nėra debesų žemiau 1500 m ir nėra kamuolinių lietaus debesų
Laikinai
nuo 19 metu 18 UTC su 20 metu 10 UTC
Vėjas 10 kt nuo kintamojo kryptimis
Tikimybė 40% :
Laikinai
nuo 19 metu 18 UTC su 20 metu 06 UTC
Vėjas 18 kt iš Šiaurės Rytų su gūsio iki 30 kt

TAF: LDRI 191725Z 1918/2018 04012KT CAVOK TX21/2012Z TN11/2004Z TEMPO 1918/2010 VRB10KT PROB40 TEMPO 1918/2006 05018G30KT

Orai ataskaitas ir orų prognozės (METAR, TAF).

turimą stotys yra geltonos ir raudonos taškus žemėlapyje.

Perkelti pele per norėdami pamatyti stoties vardą.

Tada spustelėkite, norėdami matyti oro stebėjimo ir prognozės.

Norėdami pakeisti žemėlapį: spustelėkite ant žalios mygtukų su juodo kryžiaus žemyn,; žalią mygtuką su brūkšneliu, jei norite nutolinti; arba žalių rodyklių gretimoms žemėlapius.


METAR-TAF: